Carrabassett Valley, Maine
Current Conditions -  °F | °C
As of 12:55 AM on Thursday 27 Nov 2014 (Local Time) from KWVL Reporting Station
Overcast Overcast  
Wind Chill: 18°   Ceiling: 600
Heat Index: 30°   Visibility: 1mi
Dew Point: 25°   Wind: 18mph
Humidity: 80%   Direction: 20°NNE
Pressure: 29.73"   Gusts: 31mph
Location:  45.0706°N, 70.2458°W
Report Text: KWVL 270555Z 02016G27KT 1SM OVC006 M01/M04 A2973 RMK AO1 60006 11010 21010 57027
Loading
Personal Weather Stations






























Interactive Weather Map New forecast layout! Learn more

10-Day Weather Forecast

Advertisements
Track Severe Weather on mobile